Time;durP1;ratioP1;P1;durP2;ratioP2;P2;SDS_P1;SDS_P2;PMS_P1;PMS_P2;Temp;Humidity;BMP_temperature;BMP_pressure;BME280_temperature;BME280_humidity;BME280_pressure;Samples;Min_cycle;Max_cycle;Signal;HPM_P1;HPM_P2
2022/12/14 00:01:26;;;;;;;25.33;18.73;;;-3.60;99.90;;;;;;5016438;28;20204;-67
2022/12/14 00:03:53;;;;;;;21.13;17.73;;;-3.60;99.90;;;;;;5031670;28;20318;-67
2022/12/14 00:06:28;;;;;;;23.90;18.43;;;-3.70;99.90;;;;;;5031750;28;20187;-66
2022/12/14 00:08:57;;;;;;;20.50;18.33;;;-3.70;99.90;;;;;;5016480;28;20156;-67
2022/12/14 00:11:23;;;;;;;23.10;18.10;;;-3.70;99.90;;;;;;5031547;28;20194;-67
2022/12/14 00:13:55;;;;;;;22.53;19.17;;;-3.70;99.90;;;;;;5031505;28;20206;-67
2022/12/14 00:16:21;;;;;;;23.77;18.33;;;-3.70;99.90;;;;;;5016281;28;20180;-67
2022/12/14 00:18:53;;;;;;;22.87;17.50;;;-3.70;99.90;;;;;;5016753;28;20168;-67
2022/12/14 00:21:20;;;;;;;19.93;17.87;;;-3.70;99.90;;;;;;5016318;28;20180;-67
2022/12/14 00:23:47;;;;;;;24.23;18.37;;;-3.70;99.90;;;;;;5015989;28;20215;-66
2022/12/14 00:26:15;;;;;;;22.00;16.37;;;-3.70;99.90;;;;;;5016983;28;20168;-67
2022/12/14 00:28:41;;;;;;;19.20;17.13;;;-3.70;99.90;;;;;;5017724;28;20176;-67
2022/12/14 00:31:08;;;;;;;23.50;18.70;;;-3.70;99.90;;;;;;5015917;28;20172;-67
2022/12/14 00:33:34;;;;;;;21.23;18.13;;;-3.70;99.90;;;;;;5016074;28;20195;-67
2022/12/14 00:36:01;;;;;;;20.23;16.40;;;-3.70;99.90;;;;;;5014659;28;20184;-67
2022/12/14 00:38:27;;;;;;;19.57;16.90;;;-3.70;99.90;;;;;;5014525;28;20211;-66
2022/12/14 00:40:54;;;;;;;19.87;17.57;;;-3.60;99.90;;;;;;5015805;28;20684;-67
2022/12/14 00:43:20;;;;;;;19.57;16.43;;;-3.60;99.90;;;;;;5016182;28;20218;-67
2022/12/14 00:45:46;;;;;;;19.53;16.07;;;-3.60;99.90;;;;;;5015787;28;20199;-67
2022/12/14 00:48:13;;;;;;;17.60;15.93;;;-3.60;99.90;;;;;;5014478;28;20176;-67
2022/12/14 00:50:39;;;;;;;18.70;15.57;;;-3.60;99.90;;;;;;5015557;28;20176;-67
2022/12/14 00:53:05;;;;;;;18.47;15.60;;;-3.60;99.90;;;;;;5015784;28;20564;-67
2022/12/14 00:55:37;;;;;;;23.73;17.47;;;-3.70;99.90;;;;;;5014470;28;20176;-67
2022/12/14 00:58:02;;;;;;;20.10;15.93;;;-3.60;99.90;;;;;;5014200;28;20715;-67
2022/12/14 01:00:28;;;;;;;16.30;14.60;;;-3.60;99.90;;;;;;5015903;28;20192;-67
2022/12/14 01:02:54;;;;;;;15.63;14.20;;;-3.60;99.90;;;;;;5015537;28;20208;-67
2022/12/14 01:05:20;;;;;;;16.80;15.27;;;-3.60;99.90;;;;;;5015721;28;20172;-66
2022/12/14 01:07:45;;;;;;;16.23;14.53;;;-3.60;99.90;;;;;;5015689;28;20649;-67
2022/12/14 01:10:11;;;;;;;16.80;14.37;;;-3.60;99.90;;;;;;5016229;28;20262;-66
2022/12/14 01:12:37;;;;;;;16.23;14.53;;;-3.60;99.90;;;;;;5015596;28;20668;-67
2022/12/14 01:15:03;;;;;;;14.47;13.03;;;-3.60;99.90;;;;;;5015203;28;20172;-68
2022/12/14 01:17:28;;;;;;;14.60;13.20;;;-3.60;99.90;;;;;;5015432;28;20228;-67
2022/12/14 01:19:54;;;;;;;15.50;14.07;;;-3.60;99.90;;;;;;5015199;28;20198;-67
2022/12/14 01:22:20;;;;;;;14.90;13.50;;;-3.60;99.90;;;;;;5015379;28;20211;-66
2022/12/14 01:24:46;;;;;;;15.10;13.50;;;-3.60;99.90;;;;;;5015182;28;20187;-67
2022/12/14 01:27:12;;;;;;;14.70;13.17;;;-3.60;99.90;;;;;;5015400;28;20174;-67
2022/12/14 01:29:37;;;;;;;15.50;13.90;;;-3.60;99.90;;;;;;5015215;28;20172;-66
2022/12/14 01:32:03;;;;;;;15.20;13.80;;;-3.60;99.90;;;;;;5014646;28;20573;-67
2022/12/14 01:34:30;;;;;;;15.40;13.80;;;-3.60;99.90;;;;;;5014946;28;20183;-67
2022/12/14 01:36:55;;;;;;;14.40;12.90;;;-3.60;99.90;;;;;;4997241;28;20183;-67
2022/12/14 01:39:21;;;;;;;13.87;12.57;;;-3.60;99.90;;;;;;5013486;28;20569;-67
2022/12/14 01:41:49;;;;;;;14.40;13.00;;;-3.60;99.90;;;;;;5013566;28;20184;-67
2022/12/14 01:44:17;;;;;;;14.30;12.80;;;-3.60;99.90;;;;;;5014934;28;20172;-67
2022/12/14 01:46:55;;;;;;;13.57;12.40;;;-3.60;99.90;;;;;;5014655;28;20179;-67
2022/12/14 01:49:29;;;;;;;13.93;12.57;;;-3.60;99.90;;;;;;5014880;28;20167;-67
2022/12/14 01:51:59;;;;;;;15.47;13.83;;;-3.60;99.90;;;;;;5013280;28;20167;-67
2022/12/14 01:54:27;;;;;;;13.70;12.40;;;-3.60;99.90;;;;;;5013238;28;20176;-67
2022/12/14 01:56:55;;;;;;;14.63;13.33;;;-3.60;99.90;;;;;;5013293;28;20204;-67
2022/12/14 01:59:26;;;;;;;14.53;13.03;;;-3.50;99.90;;;;;;5015108;28;20172;-66
2022/12/14 02:01:52;;;;;;;13.60;12.40;;;-3.60;99.90;;;;;;5014168;28;20192;-67
2022/12/14 02:04:19;;;;;;;14.03;12.73;;;-3.50;99.90;;;;;;5014390;28;20208;-66
2022/12/14 02:06:47;;;;;;;13.50;12.20;;;-3.50;99.90;;;;;;5014156;28;20168;-67
2022/12/14 02:09:18;;;;;;;13.23;11.97;;;-3.50;99.90;;;;;;5013217;28;20739;-67
2022/12/14 02:11:56;;;;;;;14.00;12.60;;;-3.50;99.90;;;;;;5014207;28;20152;-67
2022/12/14 02:14:22;;;;;;;13.30;12.23;;;-3.50;99.90;;;;;;5014514;28;20171;-66
2022/12/14 02:16:53;;;;;;;12.53;11.50;;;-3.50;99.90;;;;;;5014232;28;20168;-67
2022/12/14 02:19:19;;;;;;;13.30;11.93;;;-3.50;99.90;;;;;;5013006;28;20660;-67
2022/12/14 02:22:07;;;;;;;12.77;11.70;;;-3.60;99.90;;;;;;5012603;28;20198;-67
2022/12/14 02:24:44;;;;;;;13.30;12.13;;;-3.60;99.90;;;;;;5008135;28;20195;-66
2022/12/14 02:28:09;;;;;;;12.97;11.87;;;-3.60;99.90;;;;;;5029251;28;20629;-67
2022/12/14 02:30:41;;;;;;;13.23;11.87;;;-3.60;99.90;;;;;;4970260;28;20196;-67
2022/12/14 02:33:27;;;;;;;12.30;11.30;;;-3.60;99.90;;;;;;5029268;28;20192;-67
2022/12/14 02:36:36;;;;;;;13.03;12.03;;;-3.70;99.90;;;;;;5029208;28;20697;-67
2022/12/14 02:39:14;;;;;;;13.60;12.33;;;-3.70;99.90;;;;;;4934044;29;20182;-67
2022/12/14 02:41:53;;;;;;;12.87;11.73;;;-3.70;99.90;;;;;;5004064;28;20242;-66
2022/12/14 02:44:24;;;;;;;11.97;11.17;;;-3.70;99.90;;;;;;5014157;28;20171;-67
2022/12/14 02:47:05;;;;;;;11.70;10.80;;;-3.70;99.90;;;;;;5028958;28;20530;-67
2022/12/14 02:49:49;;;;;;;13.93;11.10;;;-3.70;99.90;;;;;;5013876;28;20168;-67
2022/12/14 02:52:33;;;;;;;12.57;11.57;;;-3.70;99.90;;;;;;5012349;28;20206;-67
2022/12/14 02:55:32;;;;;;;12.47;11.47;;;-3.70;99.90;;;;;;5029013;28;20183;-67
2022/12/14 02:58:13;;;;;;;12.43;11.43;;;-3.70;99.90;;;;;;5013733;28;20245;-66
2022/12/14 03:00:39;;;;;;;12.53;11.60;;;-3.70;99.90;;;;;;5028803;28;20234;-66
2022/12/14 03:03:05;;;;;;;11.87;10.90;;;-3.70;99.90;;;;;;5013562;28;20212;-67
2022/12/14 03:05:32;;;;;;;12.60;11.60;;;-3.70;99.90;;;;;;5028862;28;20207;-67
2022/12/14 03:08:03;;;;;;;12.57;11.47;;;-3.70;99.90;;;;;;5013692;28;20286;-67
2022/12/14 03:10:52;;;;;;;12.10;11.07;;;-3.70;99.90;;;;;;5013753;28;20533;-67
2022/12/14 03:13:27;;;;;;;10.97;10.17;;;-3.60;99.90;;;;;;5013648;28;20206;-67
2022/12/14 03:16:20;;;;;;;12.43;11.23;;;-3.70;99.90;;;;;;5028555;28;20258;-67
2022/12/14 03:19:02;;;;;;;11.77;10.57;;;-3.60;99.90;;;;;;5013824;28;20191;-67
2022/12/14 03:21:32;;;;;;;12.60;11.50;;;-3.60;99.90;;;;;;5032735;28;20183;-67
2022/12/14 03:24:03;;;;;;;12.47;11.47;;;-3.60;99.90;;;;;;5017306;28;20212;-66
2022/12/14 03:27:01;;;;;;;11.47;10.57;;;-3.60;99.90;;;;;;5016082;28;20176;-66
2022/12/14 03:29:31;;;;;;;11.73;10.80;;;-3.50;99.90;;;;;;5017664;28;20597;-66
2022/12/14 03:32:04;;;;;;;12.20;11.20;;;-3.50;99.90;;;;;;5015756;28;20172;-67
2022/12/14 03:34:39;;;;;;;11.33;10.60;;;-3.50;99.90;;;;;;5015837;28;20267;-66
2022/12/14 03:37:28;;;;;;;12.70;11.50;;;-3.50;99.90;;;;;;5017599;28;20152;-66
2022/12/14 03:39:54;;;;;;;12.03;11.13;;;-3.40;99.90;;;;;;5015639;28;20283;-66
2022/12/14 03:42:29;;;;;;;11.17;10.17;;;-3.40;99.90;;;;;;5016859;28;20550;-66
2022/12/14 03:45:15;;;;;;;12.77;11.83;;;-3.40;99.90;;;;;;5016909;28;20156;-66
2022/12/14 03:47:52;;;;;;;12.70;11.70;;;-3.40;99.90;;;;;;5015796;28;20706;-67
2022/12/14 03:50:23;;;;;;;12.37;11.30;;;-3.40;99.90;;;;;;5016964;28;20239;-66
2022/12/14 03:53:12;;;;;;;12.97;11.80;;;-3.40;99.90;;;;;;5015570;28;20207;-66
2022/12/14 03:55:53;;;;;;;11.60;10.73;;;-3.40;99.90;;;;;;5016990;28;20170;-67
2022/12/14 03:58:36;;;;;;;12.23;11.10;;;-3.40;99.90;;;;;;5016949;28;20190;-66
2022/12/14 04:01:51;;;;;;;11.50;10.43;;;-3.40;99.90;;;;;;5015993;28;20176;-66
2022/12/14 04:04:29;;;;;;;12.43;11.53;;;-3.40;99.90;;;;;;4977454;28;20633;-66
2022/12/14 04:07:15;;;;;;;11.60;10.60;;;-3.40;99.90;;;;;;5017404;28;20196;-66
2022/12/14 04:10:01;;;;;;;12.23;11.33;;;-3.40;99.90;;;;;;5014439;28;20222;-66
2022/12/14 04:21:23;;;;;;;12.17;11.07;;;-3.60;99.90;;;;;;5016327;28;20166;-67
2022/12/14 04:26:44;;;;;;;11.90;10.90;;;-3.60;99.90;;;;;;5016688;28;20162;-66
2022/12/14 04:32:21;;;;;;;12.43;11.50;;;-3.60;99.90;;;;;;5016183;28;20263;-67
2022/12/14 04:34:52;;;;;;;11.80;10.80;;;-3.70;99.90;;;;;;4977439;28;20288;-66
2022/12/14 04:37:21;;;;;;;12.10;11.27;;;-3.70;99.90;;;;;;5014775;28;20653;-66
2022/12/14 04:39:55;;;;;;;12.03;11.00;;;-3.70;99.90;;;;;;5015820;28;20239;-67
2022/12/14 04:42:31;;;;;;;12.07;11.17;;;-3.70;99.90;;;;;;4998159;28;20285;-67
2022/12/14 04:45:07;;;;;;;12.67;11.57;;;-3.80;99.90;;;;;;5016225;28;20219;-66
2022/12/14 04:47:39;;;;;;;12.17;11.13;;;-3.80;99.90;;;;;;5015634;28;20250;-66
2022/12/14 04:50:14;;;;;;;12.67;10.90;;;-3.80;99.90;;;;;;5015730;28;20160;-67
2022/12/14 04:52:56;;;;;;;12.70;11.60;;;-3.80;99.90;;;;;;4998118;28;20234;-67
2022/12/14 04:55:25;;;;;;;11.53;10.43;;;-3.70;99.90;;;;;;5015968;28;20200;-67
2022/12/14 04:57:56;;;;;;;12.10;10.87;;;-3.70;99.90;;;;;;5015550;28;20210;-66
2022/12/14 05:00:23;;;;;;;11.00;10.10;;;-3.70;99.90;;;;;;5015838;28;20587;-67
2022/12/14 05:03:10;;;;;;;11.37;10.47;;;-3.70;99.90;;;;;;4997750;28;20688;-67
2022/12/14 05:05:45;;;;;;;12.43;11.30;;;-3.60;99.90;;;;;;5015583;28;20175;-66
2022/12/14 05:08:40;;;;;;;12.90;11.60;;;-3.60;99.90;;;;;;4997891;28;20186;-66
2022/12/14 05:11:10;;;;;;;12.67;11.67;;;-3.60;99.90;;;;;;4998802;28;20650;-66
2022/12/14 05:13:41;;;;;;;11.40;10.50;;;-3.60;99.90;;;;;;4995629;28;20235;-66
2022/12/14 05:16:07;;;;;;;11.50;10.50;;;-3.60;99.90;;;;;;4994460;28;20222;-67
2022/12/14 05:18:34;;;;;;;12.03;11.03;;;-3.60;99.90;;;;;;4995574;28;20189;-66
2022/12/14 05:21:00;;;;;;;12.60;11.50;;;-3.60;99.90;;;;;;4995776;28;20227;-67
2022/12/14 05:23:25;;;;;;;12.13;10.80;;;-3.60;99.90;;;;;;4995252;28;20220;-67
2022/12/14 05:25:51;;;;;;;12.00;11.10;;;-3.50;99.90;;;;;;4995773;28;20526;-67
2022/12/14 05:28:17;;;;;;;12.67;11.57;;;-3.50;99.90;;;;;;4994329;28;20638;-66
2022/12/14 05:30:43;;;;;;;12.57;11.53;;;-3.50;99.90;;;;;;4994249;28;20192;-67
2022/12/14 05:33:17;;;;;;;13.50;12.30;;;-3.50;99.90;;;;;;4995365;28;20212;-67
2022/12/14 05:35:43;;;;;;;13.60;12.50;;;-3.50;99.90;;;;;;4994146;28;20266;-67
2022/12/14 05:38:09;;;;;;;14.50;13.10;;;-3.50;99.90;;;;;;4995519;28;20278;-67
2022/12/14 05:40:35;;;;;;;15.07;13.70;;;-3.50;99.90;;;;;;4995151;28;20196;-67
2022/12/14 05:43:05;;;;;;;13.70;12.50;;;-3.50;99.90;;;;;;4993258;28;20208;-67
2022/12/14 05:45:31;;;;;;;13.73;12.43;;;-3.50;99.90;;;;;;4993882;28;20263;-68
2022/12/14 05:47:56;;;;;;;12.73;11.73;;;-3.50;99.90;;;;;;4995119;28;20200;-67
2022/12/14 05:50:22;;;;;;;12.10;11.20;;;-3.50;99.90;;;;;;4995347;28;20180;-67
2022/12/14 05:52:50;;;;;;;12.30;11.20;;;-3.50;99.90;;;;;;4994972;28;20235;-66
2022/12/14 05:55:17;;;;;;;12.93;11.80;;;-3.50;99.90;;;;;;4994826;28;20169;-67
2022/12/14 05:57:43;;;;;;;12.67;11.57;;;-3.50;99.90;;;;;;4993646;28;20185;-66
2022/12/14 06:00:09;;;;;;;13.13;11.93;;;-3.50;99.90;;;;;;4993621;28;20612;-66
2022/12/14 06:02:35;;;;;;;12.20;11.20;;;-3.60;99.90;;;;;;4994672;28;20215;-66
2022/12/14 06:05:00;;;;;;;13.60;12.40;;;-3.60;99.90;;;;;;4995132;28;20165;-66
2022/12/14 06:07:26;;;;;;;13.17;12.17;;;-3.60;99.90;;;;;;4994680;28;20228;-67
2022/12/14 06:09:52;;;;;;;13.50;12.23;;;-3.60;99.90;;;;;;4993366;28;20603;-67
2022/12/14 06:12:17;;;;;;;12.17;11.23;;;-3.60;99.90;;;;;;4994488;28;20277;-67
2022/12/14 06:14:43;;;;;;;13.73;12.63;;;-3.70;99.90;;;;;;4993141;28;20184;-67
2022/12/14 06:17:10;;;;;;;13.30;12.10;;;-3.70;99.90;;;;;;4994335;28;20184;-66
2022/12/14 06:19:36;;;;;;;13.00;12.00;;;-3.70;99.90;;;;;;4994295;28;20177;-67
2022/12/14 06:22:02;;;;;;;12.87;11.80;;;-3.70;99.90;;;;;;4992932;28;20208;-67
2022/12/14 06:24:28;;;;;;;13.30;12.20;;;-3.70;99.90;;;;;;4994493;28;20219;-66
2022/12/14 06:26:53;;;;;;;12.67;11.77;;;-3.60;99.90;;;;;;4994549;28;20179;-66
2022/12/14 06:29:20;;;;;;;13.63;12.53;;;-3.60;99.90;;;;;;4994343;28;20255;-66
2022/12/14 06:31:46;;;;;;;12.67;11.77;;;-3.60;99.90;;;;;;4994664;28;20594;-67
2022/12/14 06:34:12;;;;;;;12.97;11.90;;;-3.60;99.90;;;;;;4994082;28;20195;-67
2022/12/14 06:36:41;;;;;;;13.23;12.13;;;-3.60;99.90;;;;;;4994048;28;20291;-66
2022/12/14 06:39:10;;;;;;;12.57;11.63;;;-3.60;99.90;;;;;;4992759;28;20598;-67
2022/12/14 06:41:36;;;;;;;13.10;12.00;;;-3.60;99.90;;;;;;4994034;28;20176;-67
2022/12/14 06:44:04;;;;;;;12.80;11.67;;;-3.60;99.90;;;;;;4992585;28;20216;-64
2022/12/14 06:46:30;;;;;;;12.43;11.53;;;-3.60;99.90;;;;;;4992597;28;20183;-64
2022/12/14 06:48:56;;;;;;;12.50;11.57;;;-3.60;99.90;;;;;;4993867;28;20638;-64
2022/12/14 06:51:23;;;;;;;13.57;12.43;;;-3.60;99.90;;;;;;4992672;28;20180;-64
2022/12/14 06:53:54;;;;;;;12.47;11.53;;;-3.60;99.90;;;;;;4977226;28;20208;-64
2022/12/14 06:56:21;;;;;;;12.50;11.50;;;-3.60;99.90;;;;;;4997959;28;20180;-64
2022/12/14 06:58:47;;;;;;;13.37;11.87;;;-3.60;99.90;;;;;;4998294;28;20634;-66
2022/12/14 07:01:19;;;;;;;12.33;11.10;;;-3.60;99.90;;;;;;4997815;28;20184;-66
2022/12/14 07:03:54;;;;;;;13.60;12.40;;;-3.60;99.90;;;;;;4996505;28;20235;-66
2022/12/14 07:06:21;;;;;;;13.40;12.00;;;-3.60;99.90;;;;;;4998304;28;20202;-66
2022/12/14 07:08:47;;;;;;;12.67;11.67;;;-3.60;99.90;;;;;;4998028;28;20172;-66
2022/12/14 07:11:15;;;;;;;12.80;11.80;;;-3.60;99.90;;;;;;4996463;28;20195;-66
2022/12/14 07:13:41;;;;;;;13.30;12.10;;;-3.60;99.90;;;;;;4996352;28;20265;-66
2022/12/14 07:16:10;;;;;;;13.20;12.10;;;-3.60;99.90;;;;;;4997574;28;20176;-66
2022/12/14 07:18:35;;;;;;;12.40;11.50;;;-3.60;99.90;;;;;;4996298;28;20271;-66
2022/12/14 07:21:05;;;;;;;13.37;12.17;;;-3.60;99.90;;;;;;4996448;28;20271;-66
2022/12/14 07:23:32;;;;;;;14.20;12.90;;;-3.60;99.90;;;;;;4997185;28;20227;-66
2022/12/14 07:26:06;;;;;;;14.60;13.30;;;-3.60;99.90;;;;;;4996439;28;20188;-66
2022/12/14 07:28:34;;;;;;;14.30;13.07;;;-3.60;99.90;;;;;;4997692;28;20196;-69
2022/12/14 07:31:00;;;;;;;19.40;17.57;;;-3.60;99.90;;;;;;4997844;28;20661;-69
2022/12/14 07:33:27;;;;;;;20.43;17.80;;;-3.60;99.90;;;;;;4996102;28;20232;-69
2022/12/14 07:36:04;;;;;;;17.80;16.10;;;-3.50;99.90;;;;;;4996230;28;20239;-69
2022/12/14 07:38:31;;;;;;;21.87;16.10;;;-3.50;99.90;;;;;;4997687;28;20622;-69
2022/12/14 07:41:11;;;;;;;18.27;16.43;;;-3.50;99.90;;;;;;4995972;28;20192;-69
2022/12/14 07:43:40;;;;;;;17.43;15.83;;;-3.50;99.90;;;;;;4997148;28;20208;-69
2022/12/14 07:46:10;;;;;;;16.37;14.87;;;-3.50;99.90;;;;;;4997137;28;20207;-69
2022/12/14 07:48:36;;;;;;;17.17;15.43;;;-3.50;99.90;;;;;;4997138;28;20169;-69
2022/12/14 07:51:08;;;;;;;18.57;15.83;;;-3.50;99.90;;;;;;4996021;28;20188;-69
2022/12/14 07:53:35;;;;;;;22.27;17.37;;;-3.40;99.90;;;;;;4995851;28;20731;-69
2022/12/14 07:56:04;;;;;;;18.00;15.20;;;-3.40;99.90;;;;;;4996100;28;20250;-69
2022/12/14 07:58:31;;;;;;;16.37;14.67;;;-3.40;99.90;;;;;;4996071;28;20219;-69
2022/12/14 08:01:26;;;;;;;17.97;16.20;;;-3.40;99.90;;;;;;4998564;28;20219;-68
2022/12/14 08:03:56;;;;;;;18.83;15.00;;;-3.40;99.90;;;;;;4997252;28;20207;-69
2022/12/14 08:06:23;;;;;;;14.73;13.37;;;-3.40;99.90;;;;;;4995161;28;20648;-69
2022/12/14 08:08:49;;;;;;;13.53;12.33;;;-3.40;99.90;;;;;;4995564;28;20234;-69
2022/12/14 08:11:16;;;;;;;12.73;11.60;;;-3.40;99.90;;;;;;4996794;28;20196;-69
2022/12/14 08:13:42;;;;;;;15.07;12.43;;;-3.30;99.90;;;;;;4996766;28;20254;-69
2022/12/14 08:16:11;;;;;;;13.23;11.97;;;-3.30;99.90;;;;;;4995282;28;20279;-69
2022/12/14 08:18:37;;;;;;;12.83;11.73;;;-3.30;99.90;;;;;;4996839;28;20319;-69
2022/12/14 08:21:05;;;;;;;13.50;12.40;;;-3.30;99.90;;;;;;4996578;28;20612;-69
2022/12/14 08:23:31;;;;;;;13.10;12.00;;;-3.30;99.90;;;;;;4998198;28;20707;-69
2022/12/14 08:25:58;;;;;;;15.13;13.63;;;-3.30;99.90;;;;;;4996473;28;20626;-69
2022/12/14 08:28:25;;;;;;;15.30;13.80;;;-3.20;99.90;;;;;;4996411;28;20176;-69
2022/12/14 08:30:51;;;;;;;17.93;14.63;;;-3.20;99.90;;;;;;4996229;28;20601;-69
2022/12/14 08:33:19;;;;;;;15.27;13.93;;;-3.30;99.90;;;;;;4996448;28;20275;-69
2022/12/14 08:35:45;;;;;;;15.90;14.23;;;-3.30;99.90;;;;;;4996334;28;20184;-69
2022/12/14 08:38:11;;;;;;;14.97;13.57;;;-3.20;99.90;;;;;;4996487;28;20698;-69
2022/12/14 08:40:38;;;;;;;16.33;14.67;;;-3.20;99.90;;;;;;5011183;28;20228;-69
2022/12/14 08:43:05;;;;;;;15.03;13.70;;;-3.20;99.90;;;;;;4995966;28;20250;-69
2022/12/14 08:45:31;;;;;;;13.97;12.77;;;-3.20;99.90;;;;;;4995978;28;20358;-69
2022/12/14 08:47:57;;;;;;;14.50;13.00;;;-3.20;99.90;;;;;;4996113;28;20180;-69
2022/12/14 08:50:23;;;;;;;15.43;14.03;;;-3.10;99.90;;;;;;4995999;28;20173;-69
2022/12/14 08:52:49;;;;;;;14.67;12.53;;;-3.10;99.90;;;;;;4996144;28;20204;-69
2022/12/14 08:55:15;;;;;;;14.30;12.87;;;-3.00;99.90;;;;;;4996017;28;20592;-69
2022/12/14 08:57:41;;;;;;;14.70;13.33;;;-3.00;99.90;;;;;;5011017;28;20658;-69
2022/12/14 09:00:08;;;;;;;13.67;12.47;;;-2.90;99.90;;;;;;5010922;28;20181;-69
2022/12/14 09:02:34;;;;;;;13.27;11.93;;;-2.90;99.90;;;;;;5010514;28;20208;-69
2022/12/14 09:05:00;;;;;;;13.37;12.27;;;-2.80;99.90;;;;;;4996013;28;20684;-69
2022/12/14 09:07:27;;;;;;;13.40;12.30;;;-2.80;99.90;;;;;;4996006;28;20255;-69
2022/12/14 09:09:53;;;;;;;12.97;11.77;;;-2.80;99.90;;;;;;4995833;28;20189;-69
2022/12/14 09:12:19;;;;;;;13.30;12.03;;;-2.70;99.90;;;;;;5010785;28;20280;-69
2022/12/14 09:14:48;;;;;;;12.70;11.60;;;-2.70;99.90;;;;;;4996085;28;20172;-69
2022/12/14 09:17:17;;;;;;;12.90;11.70;;;-2.70;99.90;;;;;;4994606;28;20168;-69
2022/12/14 09:19:43;;;;;;;13.60;12.30;;;-2.60;99.90;;;;;;5010566;28;20271;-69
2022/12/14 09:22:10;;;;;;;14.00;12.63;;;-2.60;99.90;;;;;;5010497;28;20216;-69
2022/12/14 09:24:35;;;;;;;13.77;12.33;;;-2.60;99.90;;;;;;4995316;28;20642;-69
2022/12/14 09:27:02;;;;;;;12.83;11.67;;;-2.60;99.90;;;;;;4994053;28;20180;-69
2022/12/14 09:29:28;;;;;;;12.23;11.23;;;-2.60;99.90;;;;;;4995292;28;20259;-69
2022/12/14 09:31:55;;;;;;;12.70;11.43;;;-2.60;99.90;;;;;;4993757;28;20187;-69
2022/12/14 09:34:22;;;;;;;12.47;11.40;;;-2.60;99.90;;;;;;4994023;28;20276;-69
2022/12/14 09:36:48;;;;;;;12.50;11.40;;;-2.60;99.90;;;;;;4993845;28;20187;-69
2022/12/14 09:39:14;;;;;;;12.47;11.33;;;-2.60;99.90;;;;;;4995130;28;20180;-69
2022/12/14 09:42:04;;;;;;;14.07;12.20;;;-2.60;99.90;;;;;;4995404;28;20549;-69
2022/12/14 09:44:44;;;;;;;14.10;12.77;;;-2.50;99.90;;;;;;4977695;28;20180;-69
2022/12/14 09:47:42;;;;;;;14.40;13.00;;;-2.50;99.90;;;;;;4995067;28;20171;-69
2022/12/14 09:50:19;;;;;;;16.03;12.50;;;-2.50;99.90;;;;;;4979227;28;20193;-69
2022/12/14 09:52:54;;;;;;;13.70;12.37;;;-2.40;99.90;;;;;;4995023;28;20291;-69
2022/12/14 09:55:25;;;;;;;13.70;12.50;;;-2.40;99.90;;;;;;4993452;28;20176;-69
2022/12/14 09:57:58;;;;;;;14.47;12.03;;;-2.40;99.90;;;;;;4995025;28;20238;-69
2022/12/14 10:00:30;;;;;;;14.10;12.70;;;-2.30;99.90;;;;;;4994716;28;20244;-69
2022/12/14 10:03:11;;;;;;;14.37;12.33;;;-2.30;99.90;;;;;;4993195;28;20215;-69
2022/12/14 10:05:44;;;;;;;14.00;12.60;;;-2.30;99.90;;;;;;4995472;28;20684;-69
2022/12/14 10:08:24;;;;;;;14.13;12.67;;;-2.30;99.90;;;;;;4994319;28;20176;-69
2022/12/14 10:11:36;;;;;;;14.53;13.03;;;-2.20;99.90;;;;;;4994089;28;20234;-70
2022/12/14 10:14:11;;;;;;;14.87;13.30;;;-2.20;99.90;;;;;;4959302;28;20628;-69
2022/12/14 10:16:46;;;;;;;14.43;13.00;;;-2.20;99.90;;;;;;4994571;28;20152;-69
2022/12/14 10:19:18;;;;;;;15.83;12.67;;;-2.10;99.90;;;;;;4993480;28;20235;-68
2022/12/14 10:22:03;;;;;;;14.10;12.33;;;-2.10;99.90;;;;;;4994099;28;20195;-70
2022/12/14 10:24:34;;;;;;;13.80;12.40;;;-2.10;99.90;;;;;;5004805;28;20227;-67
2022/12/14 10:27:00;;;;;;;14.40;12.90;;;-2.10;99.90;;;;;;4994592;28;20240;-67
2022/12/14 10:29:36;;;;;;;14.13;12.63;;;-2.00;99.90;;;;;;5009273;28;20179;-67
2022/12/14 10:32:19;;;;;;;14.33;12.93;;;-2.00;99.90;;;;;;4994077;28;20149;-67
2022/12/14 10:34:45;;;;;;;13.87;12.47;;;-2.00;99.90;;;;;;4994764;28;20157;-67
2022/12/14 10:37:19;;;;;;;13.37;12.27;;;-2.00;99.90;;;;;;4994223;28;20680;-67
2022/12/14 10:40:19;;;;;;;16.47;14.87;;;-2.00;99.90;;;;;;4998740;28;20186;-67
2022/12/14 10:42:51;;;;;;;19.27;16.47;;;-2.00;99.90;;;;;;5012489;28;20203;-67
2022/12/14 10:45:31;;;;;;;16.87;15.23;;;-1.90;99.90;;;;;;5013818;28;20172;-67
2022/12/14 10:48:10;;;;;;;15.23;13.83;;;-1.90;99.90;;;;;;5012457;28;20174;-67
2022/12/14 10:50:57;;;;;;;16.03;14.33;;;-1.80;99.90;;;;;;5013735;28;20154;-67
2022/12/14 10:53:46;;;;;;;14.33;12.77;;;-1.80;99.90;;;;;;5013748;28;20543;-67
2022/12/14 10:56:25;;;;;;;15.37;13.93;;;-1.80;99.90;;;;;;5002284;28;20184;-67
2022/12/14 10:59:16;;;;;;;16.97;13.80;;;-1.70;99.90;;;;;;5028582;28;20226;-68
2022/12/14 11:01:44;;;;;;;13.40;12.23;;;-1.70;99.90;;;;;;5012245;28;20221;-67
2022/12/14 11:04:29;;;;;;;14.87;12.90;;;-1.60;99.90;;;;;;5013339;28;20570;-67
2022/12/14 11:07:03;;;;;;;14.13;12.70;;;-1.70;99.90;;;;;;5013540;28;20160;-67
2022/12/14 11:09:29;;;;;;;15.33;13.73;;;-1.60;99.90;;;;;;5013894;28;20545;-67
2022/12/14 11:12:03;;;;;;;13.93;12.53;;;-1.60;99.90;;;;;;5028676;28;20223;-67
2022/12/14 11:14:29;;;;;;;13.13;11.93;;;-1.50;99.90;;;;;;5013400;28;20180;-67
2022/12/14 11:16:55;;;;;;;13.60;12.30;;;-1.50;99.90;;;;;;5013385;28;20172;-68
2022/12/14 11:19:23;;;;;;;13.27;12.07;;;-1.40;99.90;;;;;;5013616;28;20182;-68
2022/12/14 11:22:02;;;;;;;12.90;11.63;;;-1.40;99.90;;;;;;5013231;28;20202;-69
2022/12/14 11:24:28;;;;;;;16.70;12.57;;;-1.40;99.90;;;;;;5013224;28;20214;-67
2022/12/14 11:26:59;;;;;;;12.00;10.80;;;-1.40;99.90;;;;;;5012042;28;20180;-67
2022/12/14 11:29:33;;;;;;;12.77;11.57;;;-1.40;99.90;;;;;;5013572;28;20208;-68
2022/12/14 11:32:00;;;;;;;13.47;12.17;;;-1.30;99.90;;;;;;5011658;28;20184;-68
2022/12/14 11:34:33;;;;;;;13.87;12.47;;;-1.30;99.90;;;;;;5013481;28;20168;-68
2022/12/14 11:37:22;;;;;;;14.87;12.80;;;-1.20;99.90;;;;;;5013093;28;20654;-68
2022/12/14 11:40:03;;;;;;;13.90;12.50;;;-1.10;99.90;;;;;;5012498;28;20195;-68
2022/12/14 11:42:29;;;;;;;14.90;13.50;;;-1.10;99.90;;;;;;5016401;28;20790;-68
2022/12/14 11:45:24;;;;;;;20.67;15.43;;;-1.00;99.90;;;;;;5016954;28;20546;-68
2022/12/14 11:48:08;;;;;;;25.70;19.60;;;-1.00;99.90;;;;;;5016961;28;20625;-68
2022/12/14 11:50:34;;;;;;;23.23;17.93;;;-1.00;99.90;;;;;;5016803;28;20183;-68
2022/12/14 11:53:09;;;;;;;21.80;15.87;;;-1.00;99.90;;;;;;5016814;28;20200;-68
2022/12/14 11:55:39;;;;;;;15.97;14.27;;;-1.00;99.90;;;;;;5017994;28;20290;-68
2022/12/14 11:58:13;;;;;;;17.47;14.07;;;-0.90;99.90;;;;;;5016826;28;20183;-68
2022/12/14 12:00:48;;;;;;;14.03;12.57;;;-0.90;99.90;;;;;;5016981;28;20172;-68
2022/12/14 12:03:15;;;;;;;13.60;12.20;;;-0.80;99.90;;;;;;5016843;28;20353;-68
2022/12/14 12:05:43;;;;;;;15.27;13.73;;;-0.80;99.90;;;;;;4999109;28;20179;-68
2022/12/14 12:08:23;;;;;;;15.37;13.87;;;-0.80;99.90;;;;;;5016523;28;20258;-68
2022/12/14 12:10:52;;;;;;;15.90;13.00;;;-0.80;99.90;;;;;;4998711;28;20559;-68
2022/12/14 12:13:26;;;;;;;16.77;13.70;;;-0.70;99.90;;;;;;5016317;28;20199;-68
2022/12/14 12:16:04;;;;;;;15.60;13.60;;;-0.70;99.90;;;;;;4998820;28;20511;-68
2022/12/14 12:18:50;;;;;;;21.80;15.43;;;-0.70;99.90;;;;;;5016548;28;20258;-68
2022/12/14 12:21:31;;;;;;;18.10;15.37;;;-0.70;99.90;;;;;;5016286;28;20175;-68
2022/12/14 12:24:27;;;;;;;16.77;14.97;;;-0.80;99.90;;;;;;5016290;28;20665;-68
2022/12/14 12:26:57;;;;;;;19.50;15.63;;;-0.90;99.90;;;;;;5016210;28;20171;-68
2022/12/14 12:29:32;;;;;;;19.43;16.40;;;-0.90;99.90;;;;;;5016599;28;20171;-68
2022/12/14 12:32:35;;;;;;;16.83;15.13;;;-0.90;99.90;;;;;;5016048;28;20171;-68
2022/12/14 12:35:06;;;;;;;20.40;16.20;;;-0.90;99.90;;;;;;5016414;28;20540;-68
2022/12/14 12:37:47;;;;;;;18.17;15.90;;;-0.90;99.90;;;;;;5016132;28;20554;-68
2022/12/14 12:40:25;;;;;;;17.87;16.10;;;-0.90;99.90;;;;;;4998386;28;20183;-69
2022/12/14 12:43:12;;;;;;;18.20;16.30;;;-1.00;99.90;;;;;;4998296;28;20211;-68
2022/12/14 12:45:55;;;;;;;17.97;16.17;;;-1.00;99.90;;;;;;5014682;28;20255;-68
2022/12/14 12:48:30;;;;;;;18.57;15.17;;;-1.00;99.90;;;;;;5015861;28;20651;-68
2022/12/14 12:51:04;;;;;;;18.50;16.67;;;-1.10;99.90;;;;;;5015318;28;20206;-68
2022/12/14 12:53:43;;;;;;;19.03;16.80;;;-1.10;99.90;;;;;;5015684;28;20198;-70
2022/12/14 12:56:13;;;;;;;17.40;15.43;;;-1.20;99.90;;;;;;4998030;28;20270;-71
2022/12/14 12:58:39;;;;;;;18.50;16.50;;;-1.30;99.90;;;;;;4998117;28;20194;-70
2022/12/14 13:01:31;;;;;;;24.97;20.37;;;-1.30;99.90;;;;;;5015525;28;20203;-70
2022/12/14 13:04:02;;;;;;;16.67;15.17;;;-1.30;99.90;;;;;;4997865;28;20219;-70
2022/12/14 13:06:51;;;;;;;20.53;15.83;;;-1.40;99.90;;;;;;5015524;28;20172;-70
2022/12/14 13:09:30;;;;;;;17.53;15.70;;;-1.40;99.90;;;;;;5015758;28;20164;-70